Albert J Ellis Airport
KOAJ : now visible

Airfield :











YOU CAN JOIN US ON...

 
LOGIN :

Register | Disclaimer

   EN    FR    IT 

 









Legend :    VFR   Marginal VFR   IFR   Intensive IFR   Very Intensive IFR
Visi :
Ceiling :
>= 8 km
>= 3000ft
5 to 8 km
1000 to 3000 ft
1500m to 5 km
500 to 1000 ft
800 to 1500m
200 to 500 ft
< 800m
< 200 ft
Symbols :   Thunderstorms  Fog  Heavy snow  Heavy precipitations  Wind > 20 kt






- Airport Elevation : 94 ft


KOAJ - Albert J Ellis

CURRENT METAR :
  • 231456Z 19003KT 10SM CLR 09/M01 A3033 RMK AO2 SLP273 T00941006 58003

EXPIRED METARs :
  • 231356Z 00000KT 10SM CLR 05/01 A3035 RMK AO2 SLP279 T00500006
  • 231256Z 00000KT 10SM CLR 01/00 A3035 RMK AO2 SLP281 T00110000

TAF KOAJ
Valid from the 23 at 12:00 until the 24 at 12:00 UTC


231126Z 2312/2412 00000KT P6SM SKC
FM231500 23004KT P6SM SKC
FM240300 00000KT P6SM FEW150 AMD LTD TO CLD VIS AND WIND



MET'MAP, your aeronautical weather chart ! - Copyright ORBIFLY December 2007 - Disclaimer

ORBIFLY MET'MAP TEAM :

Programming & Development : Alexandra Zaïnal
Concept & original design : Baudouin d'Aumeries
Assistance for programming : Marc-Olivier Méhu
Technical & hardware support : Manuel Goepfert

Contact : metmap@orbifly.com




SOURCES & CREDITS :

   NOAA       Earth
Advisory